createdAt,value
2023-07-09T00:01:32.222Z,101286.38
2023-07-09T00:03:59.913Z,101285.56
2023-07-09T00:06:27.637Z,101295.66
2023-07-09T00:08:55.339Z,101285.03
2023-07-09T00:11:23.230Z,101286.06
2023-07-09T00:13:51.006Z,101279.03
2023-07-09T00:16:22.800Z,101285.44
2023-07-09T00:18:52.084Z,101281.16
2023-07-09T00:21:21.351Z,101281.28
2023-07-09T00:23:49.980Z,101289.56
2023-07-09T00:26:21.647Z,101283.44
2023-07-09T00:28:49.429Z,101283.63
2023-07-09T00:31:18.586Z,101279.28
2023-07-09T00:33:47.603Z,101281.25
2023-07-09T00:36:20.737Z,101285.00
2023-07-09T00:38:49.230Z,101283.31
2023-07-09T00:41:20.295Z,101282.53
2023-07-09T00:43:49.684Z,101285.38
2023-07-09T00:46:50.853Z,101275.63
2023-07-09T00:49:31.926Z,101282.00
2023-07-09T00:52:04.000Z,101285.72
2023-07-09T00:54:37.829Z,101285.91
2023-07-09T00:57:11.062Z,101282.44
2023-07-09T00:59:38.954Z,101279.94
2023-07-09T01:02:08.914Z,101281.00
2023-07-09T01:04:37.252Z,101291.03
2023-07-09T01:07:06.856Z,101283.94
2023-07-09T01:09:36.730Z,101284.94
2023-07-09T01:12:07.762Z,101291.31
2023-07-09T01:14:37.064Z,101285.16
2023-07-09T01:17:09.418Z,101278.06
2023-07-09T01:19:44.495Z,101288.97
2023-07-09T01:22:16.301Z,101283.72
2023-07-09T01:24:56.998Z,101281.19
2023-07-09T01:27:27.563Z,101289.34
2023-07-09T01:29:56.744Z,101290.38
2023-07-09T01:32:24.611Z,101286.06
2023-07-09T01:34:55.326Z,101291.50
2023-07-09T01:37:27.590Z,101282.66
2023-07-09T01:39:55.504Z,101284.59
2023-07-09T01:42:25.156Z,101282.81
2023-07-09T01:44:55.473Z,101285.66
2023-07-09T01:47:25.076Z,101278.56
2023-07-09T01:49:58.330Z,101274.25
2023-07-09T01:52:31.043Z,101278.84
2023-07-09T01:54:59.340Z,101278.09
2023-07-09T01:57:34.382Z,101276.34
2023-07-09T02:00:06.843Z,101283.66
2023-07-09T02:02:43.950Z,101272.09
2023-07-09T02:05:13.912Z,101283.84
2023-07-09T02:07:43.072Z,101274.19
2023-07-09T02:10:11.960Z,101277.97
2023-07-09T02:12:39.860Z,101278.03
2023-07-09T02:15:09.004Z,101279.00
2023-07-09T02:17:36.969Z,101271.97
2023-07-09T02:20:06.342Z,101274.72
2023-07-09T02:22:34.197Z,101269.41
2023-07-09T02:25:03.605Z,101269.50
2023-07-09T02:27:31.401Z,101261.53
2023-07-09T02:29:59.050Z,101259.00
2023-07-09T02:32:28.695Z,101264.44
2023-07-09T02:34:57.472Z,101270.81
2023-07-09T02:37:27.382Z,101268.19
2023-07-09T02:39:55.357Z,101262.88
2023-07-09T02:42:25.247Z,101277.28
2023-07-09T02:44:53.598Z,101268.41
2023-07-09T02:47:22.152Z,101272.06
2023-07-09T02:49:51.195Z,101272.16
2023-07-09T02:52:19.518Z,101273.13
2023-07-09T02:54:47.203Z,101279.44
2023-07-09T02:57:14.995Z,101281.31
2023-07-09T02:59:44.352Z,101271.53
2023-07-09T03:02:14.604Z,101276.03
2023-07-09T03:04:42.325Z,101284.19
2023-07-09T03:07:10.036Z,101270.78
2023-07-09T03:09:37.778Z,101281.56
2023-07-09T03:12:06.307Z,101279.84
2023-07-09T03:14:34.581Z,101272.72
2023-07-09T03:17:03.803Z,101276.31
2023-07-09T03:19:31.918Z,101279.97
2023-07-09T03:22:00.634Z,101277.34
2023-07-09T03:24:28.321Z,101289.00
2023-07-09T03:26:55.966Z,101290.84
2023-07-09T03:29:23.601Z,101290.88
2023-07-09T03:31:51.369Z,101290.06
2023-07-09T03:34:20.355Z,101286.53
2023-07-09T03:36:48.015Z,101287.50
2023-07-09T03:39:15.656Z,101291.16
2023-07-09T03:41:43.333Z,101285.84
2023-07-09T03:44:10.998Z,101287.66
2023-07-09T03:46:38.671Z,101305.59
2023-07-09T03:49:06.376Z,101293.06
2023-07-09T03:51:35.386Z,101303.81
2023-07-09T03:54:03.043Z,101297.59
2023-07-09T03:56:30.714Z,101302.09
2023-07-09T03:58:58.579Z,101298.50
2023-07-09T04:01:26.243Z,101298.53
2023-07-09T04:03:53.942Z,101290.47
2023-07-09T04:06:21.672Z,101290.50
2023-07-09T04:08:50.904Z,101291.41
2023-07-09T04:11:18.866Z,101291.41
2023-07-09T04:13:46.580Z,101294.97
2023-07-09T04:16:14.450Z,101294.06
2023-07-09T04:18:44.620Z,101300.31
2023-07-09T04:21:12.254Z,101295.78
2023-07-09T04:23:39.996Z,101298.44
2023-07-09T04:26:13.595Z,101295.69
2023-07-09T04:28:41.249Z,101300.13
2023-07-09T04:31:08.950Z,101298.31
2023-07-09T04:33:37.076Z,101303.59
2023-07-09T04:36:07.941Z,101301.75
2023-07-09T04:38:35.602Z,101305.25
2023-07-09T04:41:03.429Z,101312.28
2023-07-09T04:43:32.839Z,101312.19
2023-07-09T04:46:00.642Z,101312.06
2023-07-09T04:48:28.456Z,101311.06
2023-07-09T04:50:56.093Z,101313.63
2023-07-09T04:53:25.214Z,101312.63
2023-07-09T04:55:53.056Z,101317.84
2023-07-09T04:58:20.720Z,101314.16
2023-07-09T05:00:51.893Z,101317.59
2023-07-09T05:03:20.727Z,101313.94
2023-07-09T05:05:49.208Z,101322.63
2023-07-09T05:08:17.728Z,101318.84
2023-07-09T05:10:45.633Z,101308.84
2023-07-09T05:13:14.024Z,101313.16
2023-07-09T05:15:43.611Z,101314.75
2023-07-09T05:18:13.176Z,101311.81
2023-07-09T05:20:41.902Z,101316.97
2023-07-09T05:23:10.318Z,101319.47
2023-07-09T05:25:38.248Z,101322.84
2023-07-09T05:28:06.934Z,101318.19
2023-07-09T05:30:34.927Z,101320.63
2023-07-09T05:33:02.628Z,101318.63
2023-07-09T05:35:31.628Z,101322.88
2023-07-09T05:37:59.250Z,101325.31
2023-07-09T05:40:26.900Z,101327.78
2023-07-09T05:42:54.540Z,101324.84
2023-07-09T05:45:22.169Z,101320.13
2023-07-09T05:47:49.806Z,101332.41
2023-07-09T05:50:17.725Z,101332.13
2023-07-09T05:52:46.754Z,101333.69
2023-07-09T05:55:14.392Z,101335.31
2023-07-09T05:57:42.030Z,101332.34
2023-07-09T06:00:13.083Z,101333.91
2023-07-09T06:02:44.678Z,101324.66
2023-07-09T06:05:13.052Z,101329.78
2023-07-09T06:07:41.296Z,101333.97
2023-07-09T06:10:11.639Z,101328.31
2023-07-09T06:12:39.321Z,101323.56
2023-07-09T06:15:08.509Z,101326.91
2023-07-09T06:17:36.253Z,101325.69
2023-07-09T06:20:04.893Z,101327.19
2023-07-09T06:22:32.620Z,101335.00
2023-07-09T06:25:00.281Z,101329.28
2023-07-09T06:27:29.305Z,101335.25
2023-07-09T06:29:56.952Z,101336.75
2023-07-09T06:32:24.647Z,101338.28
2023-07-09T06:34:52.829Z,101338.06
2023-07-09T06:37:20.483Z,101341.28
2023-07-09T06:39:48.135Z,101340.09
2023-07-09T06:42:16.236Z,101337.97
2023-07-09T06:45:07.717Z,101340.28
2023-07-09T06:47:35.455Z,101337.22
2023-07-09T06:50:04.321Z,101338.72
2023-07-09T06:52:32.250Z,101341.16
2023-07-09T06:55:00.001Z,101339.91
2023-07-09T06:57:27.662Z,101339.47
2023-07-09T06:59:55.771Z,101339.94
2023-07-09T07:02:25.450Z,101335.00
2023-07-09T07:04:53.254Z,101335.56
2023-07-09T07:07:21.806Z,101346.03
2023-07-09T07:09:49.536Z,101344.75
2023-07-09T07:12:25.932Z,101339.69
2023-07-09T07:14:53.647Z,101337.41
2023-07-09T07:17:21.503Z,101326.91
2023-07-09T07:19:52.320Z,101324.56
2023-07-09T07:22:19.974Z,101326.78
2023-07-09T07:24:47.942Z,101326.28
2023-07-09T07:27:15.599Z,101330.41
2023-07-09T07:29:43.570Z,101328.13
2023-07-09T07:32:11.306Z,101324.06
2023-07-09T07:34:39.073Z,101319.88
2023-07-09T07:37:08.163Z,101322.19
2023-07-09T07:39:35.840Z,101329.06
2023-07-09T07:42:05.232Z,101332.22
2023-07-09T07:44:35.139Z,101339.84
2023-07-09T07:47:02.875Z,101340.31
2023-07-09T07:49:30.610Z,101334.28
2023-07-09T07:51:58.439Z,101332.78
2023-07-09T07:54:27.407Z,101332.25
2023-07-09T07:56:55.076Z,101337.13
2023-07-09T07:59:22.870Z,101332.97
2023-07-09T08:01:51.089Z,101333.19
2023-07-09T08:04:19.832Z,101342.63
2023-07-09T08:06:48.121Z,101344.06
2023-07-09T08:09:15.745Z,101328.16
2023-07-09T08:11:44.751Z,101332.69
2023-07-09T08:14:13.189Z,101333.06
2023-07-09T08:16:41.115Z,101331.47
2023-07-09T08:19:09.085Z,101324.31
2023-07-09T08:21:36.726Z,101322.66
2023-07-09T08:24:04.636Z,101324.59
2023-07-09T08:26:33.738Z,101322.13
2023-07-09T08:29:02.770Z,101309.59
2023-07-09T08:31:30.459Z,101316.97
2023-07-09T08:33:58.199Z,101314.44
2023-07-09T08:36:27.020Z,101324.56
2023-07-09T08:38:55.617Z,101322.78
2023-07-09T08:41:37.910Z,101318.38
2023-07-09T08:44:23.586Z,101316.56
2023-07-09T08:47:01.878Z,101313.09
2023-07-09T08:49:39.414Z,101315.47
2023-07-09T08:52:16.617Z,101311.38
2023-07-09T08:54:46.356Z,101311.19
2023-07-09T08:57:21.258Z,101315.44
2023-07-09T08:59:51.658Z,101311.50
2023-07-09T09:02:32.353Z,101303.75
2023-07-09T09:05:00.030Z,101306.44
2023-07-09T09:07:38.724Z,101308.69
2023-07-09T09:10:07.158Z,101306.25
2023-07-09T09:12:40.582Z,101314.13
2023-07-09T09:15:16.946Z,101314.38
2023-07-09T09:17:44.790Z,101312.84
2023-07-09T09:20:19.630Z,101308.34
2023-07-09T09:22:51.109Z,101308.72
2023-07-09T09:25:26.248Z,101300.47
2023-07-09T09:27:53.928Z,101299.81
2023-07-09T09:30:25.325Z,101307.28
2023-07-09T09:32:56.393Z,101302.66
2023-07-09T09:35:29.837Z,101296.72
2023-07-09T09:37:59.639Z,101298.53
2023-07-09T09:40:29.532Z,101294.66
2023-07-09T09:43:00.337Z,101300.88
2023-07-09T09:45:34.080Z,101298.25
2023-07-09T09:48:03.139Z,101297.47
2023-07-09T09:50:36.933Z,101296.31
2023-07-09T09:53:08.953Z,101299.25
2023-07-09T09:55:36.818Z,101299.16
2023-07-09T09:58:04.493Z,101300.47
2023-07-09T10:00:34.539Z,101295.97
2023-07-09T10:03:07.972Z,101293.78
2023-07-09T10:05:42.263Z,101293.19
2023-07-09T10:08:14.433Z,101286.59
2023-07-09T10:10:46.983Z,101290.59
2023-07-09T10:13:23.954Z,101288.16
2023-07-09T10:16:05.674Z,101291.63
2023-07-09T10:18:45.001Z,101290.19
2023-07-09T10:21:19.545Z,101282.38
2023-07-09T10:23:57.149Z,101289.34
2023-07-09T10:26:32.082Z,101295.00
2023-07-09T10:29:16.280Z,101289.03
2023-07-09T10:31:52.804Z,101275.09
2023-07-09T10:34:31.134Z,101281.84
2023-07-09T10:37:19.565Z,101282.94
2023-07-09T10:39:51.915Z,101285.44
2023-07-09T10:42:25.786Z,101278.44
2023-07-09T10:45:00.043Z,101285.81
2023-07-09T10:47:34.643Z,101273.97
2023-07-09T10:50:05.691Z,101273.09
2023-07-09T10:52:36.971Z,101271.59
2023-07-09T10:55:10.220Z,101261.41
2023-07-09T10:57:46.740Z,101274.06
2023-07-09T11:00:18.528Z,101256.91
2023-07-09T11:02:50.124Z,101257.06
2023-07-09T11:05:19.671Z,101259.19
2023-07-09T11:07:54.838Z,101259.09
2023-07-09T11:10:30.920Z,101262.38
2023-07-09T11:13:04.434Z,101271.06
2023-07-09T11:15:34.670Z,101274.84
2023-07-09T11:18:07.547Z,101261.88
2023-07-09T11:20:37.552Z,101264.72
2023-07-09T11:23:07.264Z,101264.41
2023-07-09T11:25:43.699Z,101254.88
2023-07-09T11:28:11.818Z,101251.56
2023-07-09T11:30:50.760Z,101244.31
2023-07-09T11:33:25.529Z,101237.91
2023-07-09T11:35:55.840Z,101237.44
2023-07-09T11:38:25.551Z,101240.09
2023-07-09T11:40:55.359Z,101240.81
2023-07-09T11:43:31.736Z,101246.53
2023-07-09T11:46:08.020Z,101235.94
2023-07-09T11:48:38.113Z,101226.00
2023-07-09T11:51:11.011Z,101231.84
2023-07-09T11:53:45.449Z,101231.28
2023-07-09T11:56:16.441Z,101231.84
2023-07-09T11:58:51.424Z,101231.38
2023-07-09T12:01:21.191Z,101229.63
2023-07-09T12:03:52.099Z,101230.13
2023-07-09T12:06:22.632Z,101226.00
2023-07-09T12:08:51.916Z,101223.91
2023-07-09T12:11:24.909Z,101219.00
2023-07-09T12:13:53.177Z,101216.31
2023-07-09T12:16:27.222Z,101218.28
2023-07-09T12:18:56.656Z,101221.38
2023-07-09T12:21:25.787Z,101206.31
2023-07-09T12:23:54.752Z,101209.13
2023-07-09T12:26:22.511Z,101205.63
2023-07-09T12:28:54.232Z,101192.69
2023-07-09T12:31:27.712Z,101201.09
2023-07-09T12:33:59.869Z,101192.94
2023-07-09T12:36:29.408Z,101195.22
2023-07-09T12:39:01.526Z,101205.72
2023-07-09T12:41:31.598Z,101199.47
2023-07-09T12:43:59.282Z,101187.94
2023-07-09T12:46:28.443Z,101181.50
2023-07-09T12:48:58.280Z,101181.69
2023-07-09T12:51:30.030Z,101181.78
2023-07-09T12:54:05.996Z,101188.63
2023-07-09T12:56:36.992Z,101184.69
2023-07-09T12:59:17.156Z,101182.66
2023-07-09T13:01:50.520Z,101177.28
2023-07-09T13:04:19.989Z,101176.41
2023-07-09T13:06:48.080Z,101172.50
2023-07-09T13:09:22.318Z,101171.13
2023-07-09T13:11:50.485Z,101174.91
2023-07-09T13:14:21.255Z,101171.91
2023-07-09T13:16:49.432Z,101170.94
2023-07-09T13:19:17.116Z,101169.94
2023-07-09T13:21:46.595Z,101165.84
2023-07-09T13:24:17.915Z,101162.13
2023-07-09T13:26:45.539Z,101173.06
2023-07-09T13:29:15.543Z,101168.97
2023-07-09T13:31:43.991Z,101164.47
2023-07-09T13:34:22.237Z,101172.53
2023-07-09T13:36:52.761Z,101173.75
2023-07-09T13:39:21.809Z,101169.22
2023-07-09T13:41:51.652Z,101164.53
2023-07-09T13:44:21.314Z,101159.63
2023-07-09T13:46:49.031Z,101163.19
2023-07-09T13:49:18.917Z,101162.34
2023-07-09T13:51:48.939Z,101166.94
2023-07-09T13:54:20.846Z,101157.22
2023-07-09T13:56:48.569Z,101153.13
2023-07-09T13:59:17.762Z,101150.03
2023-07-09T14:01:46.536Z,101141.50
2023-07-09T14:04:17.595Z,101150.75
2023-07-09T14:06:47.215Z,101149.75
2023-07-09T14:09:16.174Z,101141.31
2023-07-09T14:11:47.371Z,101137.59
2023-07-09T14:14:20.039Z,101141.63
2023-07-09T14:16:49.843Z,101141.44
2023-07-09T14:19:19.385Z,101128.56
2023-07-09T14:21:47.394Z,101126.97
2023-07-09T14:24:24.656Z,101122.69
2023-07-09T14:26:55.387Z,101113.88
2023-07-09T14:29:23.371Z,101106.97
2023-07-09T14:31:51.519Z,101111.56
2023-07-09T14:34:23.039Z,101100.09
2023-07-09T14:36:50.889Z,101096.72
2023-07-09T14:39:18.635Z,101088.56
2023-07-09T14:41:46.585Z,101093.56
2023-07-09T14:44:24.604Z,101089.81
2023-07-09T14:46:53.047Z,101091.53
2023-07-09T14:49:21.140Z,101092.13
2023-07-09T14:51:49.634Z,101082.13
2023-07-09T14:54:24.353Z,101081.44
2023-07-09T14:56:53.780Z,101067.63
2023-07-09T14:59:22.910Z,101063.69
2023-07-09T15:01:51.859Z,101060.44
2023-07-09T15:04:31.789Z,101061.00
2023-07-09T15:07:00.352Z,101066.94
2023-07-09T15:09:29.973Z,101071.53
2023-07-09T15:12:00.481Z,101064.22
2023-07-09T15:14:29.960Z,101060.53
2023-07-09T15:17:01.054Z,101065.50
2023-07-09T15:19:29.305Z,101066.47
2023-07-09T15:21:57.187Z,101064.19
2023-07-09T15:24:29.025Z,101058.69
2023-07-09T15:26:58.128Z,101063.44
2023-07-09T15:29:25.999Z,101053.94
2023-07-09T15:31:55.025Z,101046.91
2023-07-09T15:34:22.752Z,101050.22
2023-07-09T15:36:53.111Z,101038.16
2023-07-09T15:39:22.072Z,101036.25
2023-07-09T15:41:50.336Z,101031.63
2023-07-09T15:44:22.514Z,101027.69
2023-07-09T15:46:55.339Z,101019.22
2023-07-09T15:49:25.061Z,101018.56
2023-07-09T15:51:53.031Z,101015.09
2023-07-09T15:54:23.376Z,101013.59
2023-07-09T15:56:53.090Z,100995.41
2023-07-09T15:59:28.578Z,101002.38
2023-07-09T16:01:56.950Z,101000.28
2023-07-09T16:04:26.926Z,100998.88
2023-07-09T16:06:55.171Z,100984.53
2023-07-09T16:09:24.227Z,100987.50
2023-07-09T16:11:54.960Z,100985.72
2023-07-09T16:14:26.040Z,100982.94
2023-07-09T16:16:55.807Z,100989.50
2023-07-09T16:19:27.330Z,100990.84
2023-07-09T16:21:56.966Z,100988.53
2023-07-09T16:24:27.647Z,100980.16
2023-07-09T16:26:55.303Z,100977.53
2023-07-09T16:29:26.060Z,100978.94
2023-07-09T16:31:55.485Z,100974.75
2023-07-09T16:34:24.148Z,100972.59
2023-07-09T16:36:53.550Z,100973.34
2023-07-09T16:39:31.351Z,100978.25
2023-07-09T16:42:00.282Z,100986.94
2023-07-09T16:44:28.348Z,100979.81
2023-07-09T16:46:56.921Z,100984.22
2023-07-09T16:49:30.790Z,100974.25
2023-07-09T16:52:00.974Z,100974.50
2023-07-09T16:54:28.883Z,100989.38
2023-07-09T16:56:57.169Z,100991.34
2023-07-09T16:59:26.162Z,100997.91
2023-07-09T17:01:53.810Z,101003.63
2023-07-09T17:04:24.694Z,101000.06
2023-07-09T17:06:52.840Z,101003.34
2023-07-09T17:09:22.769Z,101002.81
2023-07-09T17:11:58.104Z,101001.25
2023-07-09T17:14:26.444Z,101003.31
2023-07-09T17:16:54.153Z,101006.25
2023-07-09T17:19:21.854Z,100997.28
2023-07-09T17:21:52.444Z,101006.41
2023-07-09T17:24:24.747Z,101007.31
2023-07-09T17:26:53.534Z,101001.81
2023-07-09T17:29:22.188Z,101008.16
2023-07-09T17:31:51.517Z,101005.16
2023-07-09T17:34:19.733Z,101003.41
2023-07-09T17:36:48.573Z,101003.41
2023-07-09T17:39:21.513Z,101003.94
2023-07-09T17:41:51.109Z,100997.44
2023-07-09T17:44:20.486Z,101003.78
2023-07-09T17:46:49.858Z,101013.59
2023-07-09T17:49:22.562Z,101009.84
2023-07-09T17:51:50.249Z,101006.44
2023-07-09T17:54:19.441Z,101012.91
2023-07-09T17:56:48.589Z,101007.38
2023-07-09T17:59:20.029Z,101011.97
2023-07-09T18:01:51.707Z,101012.94
2023-07-09T18:04:30.319Z,101015.50
2023-07-09T18:07:02.477Z,101017.16
2023-07-09T18:09:30.235Z,101015.84
2023-07-09T18:11:57.849Z,101009.13
2023-07-09T18:14:32.485Z,101006.06
2023-07-09T18:17:00.247Z,100998.50
2023-07-09T18:19:29.807Z,100998.16
2023-07-09T18:22:02.267Z,100998.84
2023-07-09T18:24:29.989Z,100988.63
2023-07-09T18:26:57.749Z,100988.41
2023-07-09T18:29:32.752Z,100985.63
2023-07-09T18:32:03.988Z,100988.28
2023-07-09T18:34:32.390Z,100993.66
2023-07-09T18:37:03.417Z,100993.59
2023-07-09T18:39:31.164Z,100999.06
2023-07-09T18:41:58.924Z,100993.50
2023-07-09T18:44:28.826Z,100994.28
2023-07-09T18:46:56.589Z,100986.06
2023-07-09T18:49:24.328Z,100976.00
2023-07-09T18:51:52.188Z,100981.25
2023-07-09T18:54:22.762Z,100978.47
2023-07-09T18:56:50.538Z,100968.28
2023-07-09T18:59:20.173Z,100970.03
2023-07-09T19:01:50.893Z,100976.25
2023-07-09T19:04:20.428Z,100973.63
2023-07-09T19:06:49.246Z,100971.59
2023-07-09T19:09:19.055Z,100982.41
2023-07-09T19:11:49.273Z,100981.28
2023-07-09T19:14:17.244Z,100983.84
2023-07-09T19:16:50.190Z,100985.69
2023-07-09T19:19:20.891Z,100984.75
2023-07-09T19:21:51.160Z,100985.56
2023-07-09T19:24:23.667Z,100989.00
2023-07-09T19:26:52.760Z,100982.50
2023-07-09T19:29:22.216Z,100985.91
2023-07-09T19:31:54.264Z,100986.50
2023-07-09T19:34:24.210Z,100981.72
2023-07-09T19:36:56.211Z,100978.56
2023-07-09T19:39:28.653Z,100981.88
2023-07-09T19:42:01.395Z,100984.28
2023-07-09T19:44:29.056Z,100996.75
2023-07-09T19:46:59.781Z,100996.34
2023-07-09T19:49:27.416Z,100993.38
2023-07-09T19:51:55.066Z,100993.97
2023-07-09T19:54:22.673Z,100994.41
2023-07-09T19:56:50.367Z,100998.44
2023-07-09T19:59:19.807Z,101005.34
2023-07-09T20:01:49.262Z,101005.72
2023-07-09T20:04:18.457Z,101005.38
2023-07-09T20:06:46.191Z,101004.84
2023-07-09T20:09:15.160Z,101019.91
2023-07-09T20:11:44.541Z,101014.84
2023-07-09T20:14:16.064Z,101014.50
2023-07-09T20:16:43.785Z,101025.75
2023-07-09T20:19:14.814Z,101026.16
2023-07-09T20:21:45.903Z,101032.16
2023-07-09T20:24:17.185Z,101029.91
2023-07-09T20:26:44.962Z,101034.03
2023-07-09T20:29:14.709Z,101030.84
2023-07-09T20:31:43.320Z,101029.53
2023-07-09T20:34:16.256Z,101037.13
2023-07-09T20:36:45.568Z,101028.50
2023-07-09T20:39:15.486Z,101022.56
2023-07-09T20:41:45.068Z,101034.84
2023-07-09T20:44:14.560Z,101033.38
2023-07-09T20:46:42.776Z,101026.59
2023-07-09T20:49:22.667Z,101031.53
2023-07-09T20:51:51.678Z,101028.47
2023-07-09T20:54:19.426Z,101027.00
2023-07-09T20:56:47.193Z,101021.88
2023-07-09T20:59:19.094Z,101029.47
2023-07-09T21:01:47.681Z,101018.94
2023-07-09T21:04:17.943Z,101013.69
2023-07-09T21:06:46.777Z,101011.25
2023-07-09T21:09:19.504Z,101016.03
2023-07-09T21:11:50.014Z,101015.34
2023-07-09T21:14:18.493Z,101023.69
2023-07-09T21:16:49.503Z,101021.38
2023-07-09T21:19:23.750Z,101021.66
2023-07-09T21:21:51.994Z,101019.13
2023-07-09T21:24:25.936Z,101028.38
2023-07-09T21:26:54.678Z,101028.53
2023-07-09T21:29:22.525Z,101035.16
2023-07-09T21:31:51.877Z,101034.56
2023-07-09T21:34:22.897Z,101032.00
2023-07-09T21:36:50.939Z,101034.84
2023-07-09T21:39:20.435Z,101042.97
2023-07-09T21:41:54.658Z,101044.03
2023-07-09T21:44:23.184Z,101051.41
2023-07-09T21:46:53.741Z,101053.44
2023-07-09T21:49:23.720Z,101069.00
2023-07-09T21:51:51.673Z,101081.72
2023-07-09T21:54:58.793Z,101146.09
2023-07-09T21:57:21.646Z,101174.78
2023-07-09T21:59:49.366Z,101167.09
2023-07-09T22:02:20.553Z,101174.25
2023-07-09T22:04:51.408Z,101209.78
2023-07-09T22:07:22.087Z,101236.16
2023-07-09T22:09:50.295Z,101231.16
2023-07-09T22:12:21.254Z,101229.91
2023-07-09T22:14:52.450Z,101230.78
2023-07-09T22:17:26.955Z,101234.75
2023-07-09T22:19:55.415Z,101237.72
2023-07-09T22:22:23.330Z,101230.03
2023-07-09T22:24:51.409Z,101226.00
2023-07-09T22:27:19.495Z,101224.78
2023-07-09T22:29:47.180Z,101224.25
2023-07-09T22:32:19.636Z,101239.19
2023-07-09T22:34:47.706Z,101251.34
2023-07-09T22:37:20.744Z,101261.75
2023-07-09T22:39:48.464Z,101270.41
2023-07-09T22:42:16.110Z,101262.69
2023-07-09T22:44:44.357Z,101260.47
2023-07-09T22:47:19.273Z,101257.53
2023-07-09T22:49:47.752Z,101232.09
2023-07-09T22:52:16.775Z,101237.13
2023-07-09T22:54:45.720Z,101246.59
2023-07-09T22:57:16.488Z,101253.41
2023-07-09T22:59:44.109Z,101259.31
2023-07-09T23:02:12.573Z,101282.19
2023-07-09T23:04:41.958Z,101292.41
2023-07-09T23:07:12.647Z,101303.59
2023-07-09T23:09:41.009Z,101306.59
2023-07-09T23:12:13.286Z,101293.25
2023-07-09T23:14:41.169Z,101269.25
2023-07-09T23:17:13.352Z,101272.25
2023-07-09T23:19:42.886Z,101250.97
2023-07-09T23:22:10.683Z,101245.72
2023-07-09T23:24:38.395Z,101233.38
2023-07-09T23:27:07.281Z,101209.25
2023-07-09T23:29:34.929Z,101176.94
2023-07-09T23:32:02.583Z,101140.28
2023-07-09T23:34:30.242Z,101122.44
2023-07-09T23:36:59.268Z,101097.31
2023-07-09T23:39:29.221Z,101098.34
2023-07-09T23:41:58.521Z,101088.69
2023-07-09T23:44:30.814Z,101095.19
2023-07-09T23:46:59.110Z,101100.81
2023-07-09T23:49:29.102Z,101104.53
2023-07-09T23:51:59.664Z,101105.56
2023-07-09T23:54:27.344Z,101113.84
2023-07-09T23:56:55.398Z,101119.41
2023-07-09T23:59:32.040Z,101121.31
